sensor_id;sensor_type;location;lat;lon;timestamp;temperature;humidity
19180;DHT22;9722;48.754;8.868;2024-03-02T00:00:55;6.30;99.90
19180;DHT22;9722;48.754;8.868;2024-03-02T00:04:15;6.30;99.90
19180;DHT22;9722;48.754;8.868;2024-03-02T00:07:37;6.30;99.90
19180;DHT22;9722;48.754;8.868;2024-03-02T00:10:59;6.30;99.90
19180;DHT22;9722;48.754;8.868;2024-03-02T00:14:20;6.20;99.90
19180;DHT22;9722;48.754;8.868;2024-03-02T00:17:40;6.20;99.90
19180;DHT22;9722;48.754;8.868;2024-03-02T00:21:01;6.20;99.90
19180;DHT22;9722;48.754;8.868;2024-03-02T00:24:34;6.20;99.90
19180;DHT22;9722;48.754;8.868;2024-03-02T00:27:54;6.20;99.90
19180;DHT22;9722;48.754;8.868;2024-03-02T00:31:15;6.20;99.90
19180;DHT22;9722;48.754;8.868;2024-03-02T00:34:39;6.20;99.90
19180;DHT22;9722;48.754;8.868;2024-03-02T00:38:09;6.10;99.90
19180;DHT22;9722;48.754;8.868;2024-03-02T00:41:30;6.10;99.90
19180;DHT22;9722;48.754;8.868;2024-03-02T00:44:51;6.10;99.90
19180;DHT22;9722;48.754;8.868;2024-03-02T00:48:15;6.10;99.90
19180;DHT22;9722;48.754;8.868;2024-03-02T00:51:36;6.00;99.90
19180;DHT22;9722;48.754;8.868;2024-03-02T00:54:57;6.00;99.90
19180;DHT22;9722;48.754;8.868;2024-03-02T00:58:18;5.90;99.90
19180;DHT22;9722;48.754;8.868;2024-03-02T01:01:38;5.80;99.90
19180;DHT22;9722;48.754;8.868;2024-03-02T01:04:59;5.80;99.90
19180;DHT22;9722;48.754;8.868;2024-03-02T01:08:19;5.70;99.90
19180;DHT22;9722;48.754;8.868;2024-03-02T01:11:40;5.70;99.90
19180;DHT22;9722;48.754;8.868;2024-03-02T01:15:01;5.70;99.90
19180;DHT22;9722;48.754;8.868;2024-03-02T01:18:21;5.60;99.90
19180;DHT22;9722;48.754;8.868;2024-03-02T01:21:42;5.60;99.90
19180;DHT22;9722;48.754;8.868;2024-03-02T01:25:03;5.50;99.90
19180;DHT22;9722;48.754;8.868;2024-03-02T01:28:24;5.40;99.90
19180;DHT22;9722;48.754;8.868;2024-03-02T01:31:44;5.40;99.90
19180;DHT22;9722;48.754;8.868;2024-03-02T01:35:05;5.30;99.90
19180;DHT22;9722;48.754;8.868;2024-03-02T01:38:27;5.20;99.90
19180;DHT22;9722;48.754;8.868;2024-03-02T01:41:48;5.20;99.90
19180;DHT22;9722;48.754;8.868;2024-03-02T01:45:09;5.10;99.90
19180;DHT22;9722;48.754;8.868;2024-03-02T01:48:30;5.10;99.90
19180;DHT22;9722;48.754;8.868;2024-03-02T01:51:50;5.00;99.90
19180;DHT22;9722;48.754;8.868;2024-03-02T01:55:11;4.90;99.90
19180;DHT22;9722;48.754;8.868;2024-03-02T01:58:31;4.80;99.90
19180;DHT22;9722;48.754;8.868;2024-03-02T02:01:52;4.80;99.90
19180;DHT22;9722;48.754;8.868;2024-03-02T02:05:12;4.80;99.90
19180;DHT22;9722;48.754;8.868;2024-03-02T02:08:34;4.70;99.90
19180;DHT22;9722;48.754;8.868;2024-03-02T02:11:54;4.60;99.90
19180;DHT22;9722;48.754;8.868;2024-03-02T02:15:25;4.50;99.90
19180;DHT22;9722;48.754;8.868;2024-03-02T02:18:46;4.50;99.90
19180;DHT22;9722;48.754;8.868;2024-03-02T02:22:06;4.40;99.90
19180;DHT22;9722;48.754;8.868;2024-03-02T02:25:28;4.40;99.90
19180;DHT22;9722;48.754;8.868;2024-03-02T02:28:48;4.40;99.90
19180;DHT22;9722;48.754;8.868;2024-03-02T02:32:09;4.40;99.90
19180;DHT22;9722;48.754;8.868;2024-03-02T02:35:29;4.40;99.90
19180;DHT22;9722;48.754;8.868;2024-03-02T02:38:50;4.40;99.90
19180;DHT22;9722;48.754;8.868;2024-03-02T02:42:11;4.40;99.90
19180;DHT22;9722;48.754;8.868;2024-03-02T02:45:32;4.40;99.90
19180;DHT22;9722;48.754;8.868;2024-03-02T02:48:52;4.30;99.90
19180;DHT22;9722;48.754;8.868;2024-03-02T02:52:14;4.30;99.90
19180;DHT22;9722;48.754;8.868;2024-03-02T02:55:34;4.20;99.90
19180;DHT22;9722;48.754;8.868;2024-03-02T02:58:55;4.10;99.90
19180;DHT22;9722;48.754;8.868;2024-03-02T03:02:15;4.10;99.90
19180;DHT22;9722;48.754;8.868;2024-03-02T03:05:36;4.00;99.90
19180;DHT22;9722;48.754;8.868;2024-03-02T03:08:56;3.90;99.90
19180;DHT22;9722;48.754;8.868;2024-03-02T03:12:17;3.90;99.90
19180;DHT22;9722;48.754;8.868;2024-03-02T03:15:38;3.80;99.90
19180;DHT22;9722;48.754;8.868;2024-03-02T03:18:58;3.80;99.90
19180;DHT22;9722;48.754;8.868;2024-03-02T03:22:19;3.80;99.90
19180;DHT22;9722;48.754;8.868;2024-03-02T03:25:39;3.80;99.90
19180;DHT22;9722;48.754;8.868;2024-03-02T03:29:00;3.60;99.90
19180;DHT22;9722;48.754;8.868;2024-03-02T03:32:22;3.80;99.90
19180;DHT22;9722;48.754;8.868;2024-03-02T03:35:43;3.90;99.90
19180;DHT22;9722;48.754;8.868;2024-03-02T03:39:03;3.80;99.90
19180;DHT22;9722;48.754;8.868;2024-03-02T03:42:26;3.80;99.90
19180;DHT22;9722;48.754;8.868;2024-03-02T03:45:47;3.80;99.90
19180;DHT22;9722;48.754;8.868;2024-03-02T03:49:07;3.70;99.90
19180;DHT22;9722;48.754;8.868;2024-03-02T03:52:28;3.70;99.90
19180;DHT22;9722;48.754;8.868;2024-03-02T03:55:48;3.70;99.90
19180;DHT22;9722;48.754;8.868;2024-03-02T03:59:12;3.60;99.90
19180;DHT22;9722;48.754;8.868;2024-03-02T04:02:33;3.60;99.90
19180;DHT22;9722;48.754;8.868;2024-03-02T04:05:53;3.50;99.90
19180;DHT22;9722;48.754;8.868;2024-03-02T04:09:14;3.50;99.90
19180;DHT22;9722;48.754;8.868;2024-03-02T04:12:35;3.50;99.90
19180;DHT22;9722;48.754;8.868;2024-03-02T04:15:57;3.40;99.90
19180;DHT22;9722;48.754;8.868;2024-03-02T04:19:17;3.40;99.90
19180;DHT22;9722;48.754;8.868;2024-03-02T04:22:38;3.30;99.90
19180;DHT22;9722;48.754;8.868;2024-03-02T04:25:58;3.30;99.90
19180;DHT22;9722;48.754;8.868;2024-03-02T04:29:19;3.20;99.90
19180;DHT22;9722;48.754;8.868;2024-03-02T04:32:39;3.20;99.90
19180;DHT22;9722;48.754;8.868;2024-03-02T04:36:00;3.20;99.90
19180;DHT22;9722;48.754;8.868;2024-03-02T04:39:20;3.20;99.90
19180;DHT22;9722;48.754;8.868;2024-03-02T04:42:41;3.20;99.90
19180;DHT22;9722;48.754;8.868;2024-03-02T04:46:01;3.10;99.90
19180;DHT22;9722;48.754;8.868;2024-03-02T04:49:22;3.10;99.90
19180;DHT22;9722;48.754;8.868;2024-03-02T04:52:42;3.10;99.90
19180;DHT22;9722;48.754;8.868;2024-03-02T04:56:03;3.10;99.90
19180;DHT22;9722;48.754;8.868;2024-03-02T04:59:42;3.00;99.90
19180;DHT22;9722;48.754;8.868;2024-03-02T05:03:03;3.00;99.90
19180;DHT22;9722;48.754;8.868;2024-03-02T05:06:24;2.90;99.90
19180;DHT22;9722;48.754;8.868;2024-03-02T05:09:44;2.90;99.90
19180;DHT22;9722;48.754;8.868;2024-03-02T05:13:05;2.90;99.90
19180;DHT22;9722;48.754;8.868;2024-03-02T05:16:25;2.90;99.90
19180;DHT22;9722;48.754;8.868;2024-03-02T05:19:46;3.00;99.90
19180;DHT22;9722;48.754;8.868;2024-03-02T05:23:06;3.00;99.90
19180;DHT22;9722;48.754;8.868;2024-03-02T05:26:26;2.90;99.90
19180;DHT22;9722;48.754;8.868;2024-03-02T05:29:47;2.90;99.90
19180;DHT22;9722;48.754;8.868;2024-03-02T05:33:07;2.90;99.90
19180;DHT22;9722;48.754;8.868;2024-03-02T05:36:28;2.90;99.90
19180;DHT22;9722;48.754;8.868;2024-03-02T05:39:48;2.90;99.90
19180;DHT22;9722;48.754;8.868;2024-03-02T05:43:09;2.90;99.90
19180;DHT22;9722;48.754;8.868;2024-03-02T05:46:29;2.90;99.90
19180;DHT22;9722;48.754;8.868;2024-03-02T05:49:50;2.90;99.90
19180;DHT22;9722;48.754;8.868;2024-03-02T05:53:10;2.90;99.90
19180;DHT22;9722;48.754;8.868;2024-03-02T05:56:31;2.90;99.90
19180;DHT22;9722;48.754;8.868;2024-03-02T05:59:52;3.00;99.90
19180;DHT22;9722;48.754;8.868;2024-03-02T06:03:12;2.90;99.90
19180;DHT22;9722;48.754;8.868;2024-03-02T06:06:33;2.90;99.90
19180;DHT22;9722;48.754;8.868;2024-03-02T06:09:54;3.00;99.90
19180;DHT22;9722;48.754;8.868;2024-03-02T06:13:14;3.00;99.90
19180;DHT22;9722;48.754;8.868;2024-03-02T06:16:35;2.90;99.90
19180;DHT22;9722;48.754;8.868;2024-03-02T06:19:55;2.90;99.90
19180;DHT22;9722;48.754;8.868;2024-03-02T06:23:16;3.00;99.90
19180;DHT22;9722;48.754;8.868;2024-03-02T06:26:36;3.10;99.90
19180;DHT22;9722;48.754;8.868;2024-03-02T06:29:57;3.10;99.90
19180;DHT22;9722;48.754;8.868;2024-03-02T06:33:17;3.10;99.90
19180;DHT22;9722;48.754;8.868;2024-03-02T06:36:38;3.10;99.90
19180;DHT22;9722;48.754;8.868;2024-03-02T06:40:00;3.10;99.90
19180;DHT22;9722;48.754;8.868;2024-03-02T06:43:21;3.10;99.90
19180;DHT22;9722;48.754;8.868;2024-03-02T06:46:44;3.20;99.90
19180;DHT22;9722;48.754;8.868;2024-03-02T06:50:05;3.20;99.90
19180;DHT22;9722;48.754;8.868;2024-03-02T06:53:25;3.30;99.90
19180;DHT22;9722;48.754;8.868;2024-03-02T06:56:46;3.40;99.90
19180;DHT22;9722;48.754;8.868;2024-03-02T07:00:07;3.50;99.90
19180;DHT22;9722;48.754;8.868;2024-03-02T07:03:29;3.60;99.90
19180;DHT22;9722;48.754;8.868;2024-03-02T07:06:49;3.90;99.90
19180;DHT22;9722;48.754;8.868;2024-03-02T07:10:11;4.20;99.90
19180;DHT22;9722;48.754;8.868;2024-03-02T07:13:31;4.30;99.90
19180;DHT22;9722;48.754;8.868;2024-03-02T07:16:52;4.30;99.90
19180;DHT22;9722;48.754;8.868;2024-03-02T07:20:12;4.30;99.90
19180;DHT22;9722;48.754;8.868;2024-03-02T07:23:34;4.40;99.90
19180;DHT22;9722;48.754;8.868;2024-03-02T07:26:54;4.40;99.90
19180;DHT22;9722;48.754;8.868;2024-03-02T07:30:15;4.50;99.90
19180;DHT22;9722;48.754;8.868;2024-03-02T07:33:36;4.50;99.90
19180;DHT22;9722;48.754;8.868;2024-03-02T07:36:57;4.60;99.90
19180;DHT22;9722;48.754;8.868;2024-03-02T07:40:17;4.70;99.90
19180;DHT22;9722;48.754;8.868;2024-03-02T07:43:38;4.80;99.90
19180;DHT22;9722;48.754;8.868;2024-03-02T07:46:59;4.90;99.90
19180;DHT22;9722;48.754;8.868;2024-03-02T07:50:19;5.00;99.90
19180;DHT22;9722;48.754;8.868;2024-03-02T07:53:40;5.40;99.90
19180;DHT22;9722;48.754;8.868;2024-03-02T07:57:00;6.00;99.90
19180;DHT22;9722;48.754;8.868;2024-03-02T08:00:21;6.80;99.90
19180;DHT22;9722;48.754;8.868;2024-03-02T08:03:43;7.80;99.90
19180;DHT22;9722;48.754;8.868;2024-03-02T08:07:08;9.10;99.90
19180;DHT22;9722;48.754;8.868;2024-03-02T08:10:29;10.50;99.90
19180;DHT22;9722;48.754;8.868;2024-03-02T08:13:51;11.50;99.90
19180;DHT22;9722;48.754;8.868;2024-03-02T08:17:13;12.50;98.20
19180;DHT22;9722;48.754;8.868;2024-03-02T08:20:33;13.40;95.30
19180;DHT22;9722;48.754;8.868;2024-03-02T08:23:54;14.30;91.80
19180;DHT22;9722;48.754;8.868;2024-03-02T08:27:14;15.30;87.90
19180;DHT22;9722;48.754;8.868;2024-03-02T08:30:35;16.10;82.20
19180;DHT22;9722;48.754;8.868;2024-03-02T08:33:56;16.80;75.90
19180;DHT22;9722;48.754;8.868;2024-03-02T08:37:17;17.60;72.60
19180;DHT22;9722;48.754;8.868;2024-03-02T08:40:37;18.30;69.20
19180;DHT22;9722;48.754;8.868;2024-03-02T08:43:59;19.10;66.00
19180;DHT22;9722;48.754;8.868;2024-03-02T08:47:19;19.40;60.80
19180;DHT22;9722;48.754;8.868;2024-03-02T08:50:40;19.60;58.20
19180;DHT22;9722;48.754;8.868;2024-03-02T08:54:00;19.40;56.20
19180;DHT22;9722;48.754;8.868;2024-03-02T08:57:21;19.30;55.40
19180;DHT22;9722;48.754;8.868;2024-03-02T09:00:42;19.40;55.30
19180;DHT22;9722;48.754;8.868;2024-03-02T09:04:02;19.60;54.60
19180;DHT22;9722;48.754;8.868;2024-03-02T09:07:23;19.90;53.50
19180;DHT22;9722;48.754;8.868;2024-03-02T09:10:44;20.10;52.90
19180;DHT22;9722;48.754;8.868;2024-03-02T09:14:04;20.40;52.00
19180;DHT22;9722;48.754;8.868;2024-03-02T09:17:25;20.60;51.50
19180;DHT22;9722;48.754;8.868;2024-03-02T09:20:46;20.80;50.40
19180;DHT22;9722;48.754;8.868;2024-03-02T09:24:06;20.90;49.70
19180;DHT22;9722;48.754;8.868;2024-03-02T09:27:27;21.00;49.40
19180;DHT22;9722;48.754;8.868;2024-03-02T09:30:47;21.00;48.50
19180;DHT22;9722;48.754;8.868;2024-03-02T09:34:08;21.10;48.40
19180;DHT22;9722;48.754;8.868;2024-03-02T09:37:28;21.40;48.10
19180;DHT22;9722;48.754;8.868;2024-03-02T09:40:49;21.60;47.90
19180;DHT22;9722;48.754;8.868;2024-03-02T09:44:09;22.10;47.90
19180;DHT22;9722;48.754;8.868;2024-03-02T09:47:30;22.60;47.00
19180;DHT22;9722;48.754;8.868;2024-03-02T09:50:50;23.00;46.20
19180;DHT22;9722;48.754;8.868;2024-03-02T09:54:11;23.30;45.70
19180;DHT22;9722;48.754;8.868;2024-03-02T09:57:32;23.70;45.10
19180;DHT22;9722;48.754;8.868;2024-03-02T10:00:52;24.10;44.20
19180;DHT22;9722;48.754;8.868;2024-03-02T10:04:13;24.10;43.90
19180;DHT22;9722;48.754;8.868;2024-03-02T10:07:33;24.20;43.40
19180;DHT22;9722;48.754;8.868;2024-03-02T10:10:54;24.50;43.20
19180;DHT22;9722;48.754;8.868;2024-03-02T10:14:14;24.60;42.40
19180;DHT22;9722;48.754;8.868;2024-03-02T10:17:35;24.70;42.00
19180;DHT22;9722;48.754;8.868;2024-03-02T10:21:13;24.70;41.50
19180;DHT22;9722;48.754;8.868;2024-03-02T10:24:41;24.90;41.20
19180;DHT22;9722;48.754;8.868;2024-03-02T10:28:02;25.00;40.70
19180;DHT22;9722;48.754;8.868;2024-03-02T10:31:26;25.00;40.70
19180;DHT22;9722;48.754;8.868;2024-03-02T10:34:49;24.90;40.20
19180;DHT22;9722;48.754;8.868;2024-03-02T10:38:11;25.10;40.20
19180;DHT22;9722;48.754;8.868;2024-03-02T10:41:33;25.30;39.80
19180;DHT22;9722;48.754;8.868;2024-03-02T10:44:57;25.40;39.20
19180;DHT22;9722;48.754;8.868;2024-03-02T10:48:18;25.60;38.90
19180;DHT22;9722;48.754;8.868;2024-03-02T10:51:38;25.70;38.40
19180;DHT22;9722;48.754;8.868;2024-03-02T10:55:00;25.70;37.80
19180;DHT22;9722;48.754;8.868;2024-03-02T10:58:20;25.70;37.40
19180;DHT22;9722;48.754;8.868;2024-03-02T11:01:42;25.90;37.30
19180;DHT22;9722;48.754;8.868;2024-03-02T11:05:06;26.20;36.70
19180;DHT22;9722;48.754;8.868;2024-03-02T11:08:28;26.30;36.30
19180;DHT22;9722;48.754;8.868;2024-03-02T11:11:56;26.50;36.20
19180;DHT22;9722;48.754;8.868;2024-03-02T11:15:21;27.00;35.80
19180;DHT22;9722;48.754;8.868;2024-03-02T11:18:45;27.40;35.20
19180;DHT22;9722;48.754;8.868;2024-03-02T11:22:07;27.80;35.00
19180;DHT22;9722;48.754;8.868;2024-03-02T11:25:28;28.00;34.50
19180;DHT22;9722;48.754;8.868;2024-03-02T11:28:51;28.20;34.10
19180;DHT22;9722;48.754;8.868;2024-03-02T11:32:21;28.10;33.80
19180;DHT22;9722;48.754;8.868;2024-03-02T11:35:43;28.10;33.30
19180;DHT22;9722;48.754;8.868;2024-03-02T11:39:06;27.70;33.50
19180;DHT22;9722;48.754;8.868;2024-03-02T11:42:27;27.20;34.60
19180;DHT22;9722;48.754;8.868;2024-03-02T11:45:48;27.00;34.10
19180;DHT22;9722;48.754;8.868;2024-03-02T11:49:08;27.10;34.30
19180;DHT22;9722;48.754;8.868;2024-03-02T11:52:30;27.00;33.80
19180;DHT22;9722;48.754;8.868;2024-03-02T11:55:52;27.00;34.30
19180;DHT22;9722;48.754;8.868;2024-03-02T11:59:15;27.70;34.00
19180;DHT22;9722;48.754;8.868;2024-03-02T12:02:36;28.40;33.60
19180;DHT22;9722;48.754;8.868;2024-03-02T12:05:57;29.40;33.30
19180;DHT22;9722;48.754;8.868;2024-03-02T12:09:18;30.70;32.40
19180;DHT22;9722;48.754;8.868;2024-03-02T12:12:38;31.50;31.40
19180;DHT22;9722;48.754;8.868;2024-03-02T12:15:59;32.00;30.00
19180;DHT22;9722;48.754;8.868;2024-03-02T12:19:19;32.30;29.70
19180;DHT22;9722;48.754;8.868;2024-03-02T12:22:40;32.40;29.00
19180;DHT22;9722;48.754;8.868;2024-03-02T12:26:01;32.10;29.00
19180;DHT22;9722;48.754;8.868;2024-03-02T12:29:22;32.00;28.90
19180;DHT22;9722;48.754;8.868;2024-03-02T12:32:45;31.90;28.70
19180;DHT22;9722;48.754;8.868;2024-03-02T12:36:09;32.10;28.60
19180;DHT22;9722;48.754;8.868;2024-03-02T12:39:32;32.10;28.40
19180;DHT22;9722;48.754;8.868;2024-03-02T12:42:53;32.40;28.70
19180;DHT22;9722;48.754;8.868;2024-03-02T12:46:20;32.80;28.30
19180;DHT22;9722;48.754;8.868;2024-03-02T12:49:41;33.00;28.30
19180;DHT22;9722;48.754;8.868;2024-03-02T12:53:02;33.40;27.90
19180;DHT22;9722;48.754;8.868;2024-03-02T12:56:23;33.10;27.70
19180;DHT22;9722;48.754;8.868;2024-03-02T12:59:48;32.20;27.80
19180;DHT22;9722;48.754;8.868;2024-03-02T13:03:08;31.60;28.50
19180;DHT22;9722;48.754;8.868;2024-03-02T13:06:29;31.50;28.60
19180;DHT22;9722;48.754;8.868;2024-03-02T13:09:50;31.30;28.50
19180;DHT22;9722;48.754;8.868;2024-03-02T13:13:10;30.30;28.90
19180;DHT22;9722;48.754;8.868;2024-03-02T13:16:31;29.10;29.60
19180;DHT22;9722;48.754;8.868;2024-03-02T13:19:52;27.90;30.60
19180;DHT22;9722;48.754;8.868;2024-03-02T13:23:13;26.80;31.60
19180;DHT22;9722;48.754;8.868;2024-03-02T13:26:34;25.70;33.50
19180;DHT22;9722;48.754;8.868;2024-03-02T13:29:55;24.60;34.10
19180;DHT22;9722;48.754;8.868;2024-03-02T13:33:15;23.80;35.00
19180;DHT22;9722;48.754;8.868;2024-03-02T13:36:36;23.30;35.70
19180;DHT22;9722;48.754;8.868;2024-03-02T13:39:56;23.10;36.10
19180;DHT22;9722;48.754;8.868;2024-03-02T13:43:17;23.00;36.40
19180;DHT22;9722;48.754;8.868;2024-03-02T13:46:38;23.10;36.40
19180;DHT22;9722;48.754;8.868;2024-03-02T13:49:59;23.10;36.30
19180;DHT22;9722;48.754;8.868;2024-03-02T13:53:20;23.10;36.70
19180;DHT22;9722;48.754;8.868;2024-03-02T13:56:40;23.60;36.40
19180;DHT22;9722;48.754;8.868;2024-03-02T14:00:01;23.90;35.80
19180;DHT22;9722;48.754;8.868;2024-03-02T14:03:23;23.90;35.70
19180;DHT22;9722;48.754;8.868;2024-03-02T14:06:44;24.00;36.00
19180;DHT22;9722;48.754;8.868;2024-03-02T14:10:05;24.60;36.20
19180;DHT22;9722;48.754;8.868;2024-03-02T14:13:26;25.70;35.50
19180;DHT22;9722;48.754;8.868;2024-03-02T14:16:46;26.80;34.40
19180;DHT22;9722;48.754;8.868;2024-03-02T14:20:07;27.60;33.20
19180;DHT22;9722;48.754;8.868;2024-03-02T14:23:30;27.90;32.60
19180;DHT22;9722;48.754;8.868;2024-03-02T14:26:51;28.00;31.70
19180;DHT22;9722;48.754;8.868;2024-03-02T14:30:13;28.00;31.60
19180;DHT22;9722;48.754;8.868;2024-03-02T14:33:34;28.00;31.50
19180;DHT22;9722;48.754;8.868;2024-03-02T14:36:55;27.80;31.50
19180;DHT22;9722;48.754;8.868;2024-03-02T14:40:15;27.80;31.60
19180;DHT22;9722;48.754;8.868;2024-03-02T14:43:36;27.50;31.70
19180;DHT22;9722;48.754;8.868;2024-03-02T14:46:57;27.40;32.00
19180;DHT22;9722;48.754;8.868;2024-03-02T14:50:19;27.10;32.10
19180;DHT22;9722;48.754;8.868;2024-03-02T14:53:39;26.90;32.40
19180;DHT22;9722;48.754;8.868;2024-03-02T14:57:00;26.90;32.80
19180;DHT22;9722;48.754;8.868;2024-03-02T15:00:20;26.90;32.90
19180;DHT22;9722;48.754;8.868;2024-03-02T15:03:41;26.30;33.10
19180;DHT22;9722;48.754;8.868;2024-03-02T15:07:01;25.40;33.60
19180;DHT22;9722;48.754;8.868;2024-03-02T15:10:22;24.60;34.30
19180;DHT22;9722;48.754;8.868;2024-03-02T15:13:42;23.60;34.90
19180;DHT22;9722;48.754;8.868;2024-03-02T15:17:04;22.60;35.80
19180;DHT22;9722;48.754;8.868;2024-03-02T15:20:24;21.60;36.70
19180;DHT22;9722;48.754;8.868;2024-03-02T15:23:45;20.70;37.50
19180;DHT22;9722;48.754;8.868;2024-03-02T15:27:05;20.00;38.30
19180;DHT22;9722;48.754;8.868;2024-03-02T15:30:28;19.30;39.00
19180;DHT22;9722;48.754;8.868;2024-03-02T15:33:49;18.80;40.00
19180;DHT22;9722;48.754;8.868;2024-03-02T15:37:10;18.30;40.70
19180;DHT22;9722;48.754;8.868;2024-03-02T15:40:30;17.90;41.50
19180;DHT22;9722;48.754;8.868;2024-03-02T15:43:51;17.50;42.00
19180;DHT22;9722;48.754;8.868;2024-03-02T15:47:11;17.20;42.50
19180;DHT22;9722;48.754;8.868;2024-03-02T15:50:32;17.00;43.40
19180;DHT22;9722;48.754;8.868;2024-03-02T15:53:53;16.70;43.50
19180;DHT22;9722;48.754;8.868;2024-03-02T15:57:13;16.50;44.00
19180;DHT22;9722;48.754;8.868;2024-03-02T16:00:34;16.30;44.60
19180;DHT22;9722;48.754;8.868;2024-03-02T16:03:55;16.20;45.30
19180;DHT22;9722;48.754;8.868;2024-03-02T16:07:16;16.00;45.90
19180;DHT22;9722;48.754;8.868;2024-03-02T16:10:36;15.80;46.20
19180;DHT22;9722;48.754;8.868;2024-03-02T16:13:57;15.60;46.60
19180;DHT22;9722;48.754;8.868;2024-03-02T16:17:18;15.50;47.10
19180;DHT22;9722;48.754;8.868;2024-03-02T16:20:39;15.30;47.90
19180;DHT22;9722;48.754;8.868;2024-03-02T16:24:01;15.20;49.00
19180;DHT22;9722;48.754;8.868;2024-03-02T16:27:21;15.00;49.90
19180;DHT22;9722;48.754;8.868;2024-03-02T16:30:42;14.80;50.00
19180;DHT22;9722;48.754;8.868;2024-03-02T16:34:02;14.60;49.60
19180;DHT22;9722;48.754;8.868;2024-03-02T16:37:23;14.50;49.30
19180;DHT22;9722;48.754;8.868;2024-03-02T16:40:46;14.30;49.20
19180;DHT22;9722;48.754;8.868;2024-03-02T16:44:08;14.20;49.10
19180;DHT22;9722;48.754;8.868;2024-03-02T16:47:28;14.00;49.10
19180;DHT22;9722;48.754;8.868;2024-03-02T16:50:49;13.90;49.30
19180;DHT22;9722;48.754;8.868;2024-03-02T16:54:09;13.80;49.50
19180;DHT22;9722;48.754;8.868;2024-03-02T16:57:30;13.70;49.70
19180;DHT22;9722;48.754;8.868;2024-03-02T17:00:50;13.60;50.00
19180;DHT22;9722;48.754;8.868;2024-03-02T17:04:12;13.50;50.50
19180;DHT22;9722;48.754;8.868;2024-03-02T17:07:33;13.40;50.80
19180;DHT22;9722;48.754;8.868;2024-03-02T17:10:53;13.30;51.30
19180;DHT22;9722;48.754;8.868;2024-03-02T17:14:15;13.20;51.60
19180;DHT22;9722;48.754;8.868;2024-03-02T17:17:35;13.00;52.40
19180;DHT22;9722;48.754;8.868;2024-03-02T17:20:56;13.00;52.10
19180;DHT22;9722;48.754;8.868;2024-03-02T17:24:16;12.90;52.50
19180;DHT22;9722;48.754;8.868;2024-03-02T17:27:37;12.80;52.80
19180;DHT22;9722;48.754;8.868;2024-03-02T17:30:57;12.80;53.20
19180;DHT22;9722;48.754;8.868;2024-03-02T17:34:19;12.70;53.50
19180;DHT22;9722;48.754;8.868;2024-03-02T17:37:39;12.70;53.80
19180;DHT22;9722;48.754;8.868;2024-03-02T17:41:00;12.60;54.30
19180;DHT22;9722;48.754;8.868;2024-03-02T17:44:21;12.60;54.60
19180;DHT22;9722;48.754;8.868;2024-03-02T17:47:41;12.50;54.80
19180;DHT22;9722;48.754;8.868;2024-03-02T17:51:05;12.50;55.40
19180;DHT22;9722;48.754;8.868;2024-03-02T17:54:26;12.50;55.90
19180;DHT22;9722;48.754;8.868;2024-03-02T17:57:46;12.40;56.90
19180;DHT22;9722;48.754;8.868;2024-03-02T18:01:09;12.40;56.70
19180;DHT22;9722;48.754;8.868;2024-03-02T18:04:31;12.30;57.00
19180;DHT22;9722;48.754;8.868;2024-03-02T18:07:52;12.30;57.30
19180;DHT22;9722;48.754;8.868;2024-03-02T18:11:16;12.30;57.60
19180;DHT22;9722;48.754;8.868;2024-03-02T18:14:37;12.20;57.90
19180;DHT22;9722;48.754;8.868;2024-03-02T18:17:57;12.20;58.40
19180;DHT22;9722;48.754;8.868;2024-03-02T18:21:20;12.10;58.70
19180;DHT22;9722;48.754;8.868;2024-03-02T18:24:40;12.00;59.40
19180;DHT22;9722;48.754;8.868;2024-03-02T18:28:01;12.00;60.70
19180;DHT22;9722;48.754;8.868;2024-03-02T18:31:21;11.90;62.20
19180;DHT22;9722;48.754;8.868;2024-03-02T18:34:42;11.90;63.80
19180;DHT22;9722;48.754;8.868;2024-03-02T18:38:03;11.80;64.50
19180;DHT22;9722;48.754;8.868;2024-03-02T18:41:24;11.80;65.30
19180;DHT22;9722;48.754;8.868;2024-03-02T18:44:45;11.70;65.50
19180;DHT22;9722;48.754;8.868;2024-03-02T18:48:07;11.70;66.10
19180;DHT22;9722;48.754;8.868;2024-03-02T18:51:28;11.60;67.30
19180;DHT22;9722;48.754;8.868;2024-03-02T18:54:48;11.60;68.00
19180;DHT22;9722;48.754;8.868;2024-03-02T18:58:09;11.50;68.70
19180;DHT22;9722;48.754;8.868;2024-03-02T19:01:29;11.50;69.10
19180;DHT22;9722;48.754;8.868;2024-03-02T19:04:50;11.40;69.10
19180;DHT22;9722;48.754;8.868;2024-03-02T19:08:11;11.30;69.60
19180;DHT22;9722;48.754;8.868;2024-03-02T19:11:35;11.30;69.70
19180;DHT22;9722;48.754;8.868;2024-03-02T19:14:56;11.20;70.70
19180;DHT22;9722;48.754;8.868;2024-03-02T19:18:16;11.20;71.30
19180;DHT22;9722;48.754;8.868;2024-03-02T19:21:37;11.00;71.80
19180;DHT22;9722;48.754;8.868;2024-03-02T19:24:57;10.90;72.50
19180;DHT22;9722;48.754;8.868;2024-03-02T19:28:18;10.90;73.20
19180;DHT22;9722;48.754;8.868;2024-03-02T19:31:38;10.80;73.60
19180;DHT22;9722;48.754;8.868;2024-03-02T19:34:59;10.60;74.30
19180;DHT22;9722;48.754;8.868;2024-03-02T19:38:20;10.50;74.80
19180;DHT22;9722;48.754;8.868;2024-03-02T19:41:40;10.50;75.70
19180;DHT22;9722;48.754;8.868;2024-03-02T19:45:01;10.40;76.50
19180;DHT22;9722;48.754;8.868;2024-03-02T19:48:24;10.30;77.60
19180;DHT22;9722;48.754;8.868;2024-03-02T19:51:45;10.20;78.70
19180;DHT22;9722;48.754;8.868;2024-03-02T19:55:06;10.10;79.70
19180;DHT22;9722;48.754;8.868;2024-03-02T19:58:26;10.10;80.70
19180;DHT22;9722;48.754;8.868;2024-03-02T20:01:47;10.00;82.00
19180;DHT22;9722;48.754;8.868;2024-03-02T20:05:08;9.90;84.10
19180;DHT22;9722;48.754;8.868;2024-03-02T20:08:28;9.80;85.00
19180;DHT22;9722;48.754;8.868;2024-03-02T20:11:49;9.70;86.30
19180;DHT22;9722;48.754;8.868;2024-03-02T20:15:11;9.70;87.60
19180;DHT22;9722;48.754;8.868;2024-03-02T20:18:32;9.60;88.80
19180;DHT22;9722;48.754;8.868;2024-03-02T20:21:53;9.60;89.90
19180;DHT22;9722;48.754;8.868;2024-03-02T20:25:13;9.50;90.40
19180;DHT22;9722;48.754;8.868;2024-03-02T20:28:35;9.50;90.90
19180;DHT22;9722;48.754;8.868;2024-03-02T20:31:56;9.40;91.40
19180;DHT22;9722;48.754;8.868;2024-03-02T20:35:18;9.30;91.90
19180;DHT22;9722;48.754;8.868;2024-03-02T20:38:39;9.20;92.40
19180;DHT22;9722;48.754;8.868;2024-03-02T20:41:59;9.20;92.90
19180;DHT22;9722;48.754;8.868;2024-03-02T20:45:21;9.10;93.50
19180;DHT22;9722;48.754;8.868;2024-03-02T20:48:42;9.10;93.90
19180;DHT22;9722;48.754;8.868;2024-03-02T20:52:02;9.10;94.30
19180;DHT22;9722;48.754;8.868;2024-03-02T20:55:23;9.00;94.60
19180;DHT22;9722;48.754;8.868;2024-03-02T20:58:43;9.00;95.00
19180;DHT22;9722;48.754;8.868;2024-03-02T21:02:05;9.10;95.30
19180;DHT22;9722;48.754;8.868;2024-03-02T21:05:26;9.10;95.50
19180;DHT22;9722;48.754;8.868;2024-03-02T21:08:47;9.10;95.80
19180;DHT22;9722;48.754;8.868;2024-03-02T21:12:07;9.20;95.90
19180;DHT22;9722;48.754;8.868;2024-03-02T21:15:29;9.20;96.00
19180;DHT22;9722;48.754;8.868;2024-03-02T21:18:49;9.10;96.20
19180;DHT22;9722;48.754;8.868;2024-03-02T21:22:10;9.20;96.40
19180;DHT22;9722;48.754;8.868;2024-03-02T21:25:31;9.10;96.60
19180;DHT22;9722;48.754;8.868;2024-03-02T21:28:55;9.10;96.80
19180;DHT22;9722;48.754;8.868;2024-03-02T21:32:16;9.10;97.00
19180;DHT22;9722;48.754;8.868;2024-03-02T21:35:36;9.10;97.10
19180;DHT22;9722;48.754;8.868;2024-03-02T21:38:57;9.10;97.20